Time;durP1;ratioP1;P1;durP2;ratioP2;P2;SDS_P1;SDS_P2;PMS_P1;PMS_P2;Temp;Humidity;BMP_temperature;BMP_pressure;BME280_temperature;BME280_humidity;BME280_pressure;Samples;Min_cycle;Max_cycle;Signal;HPM_P1;HPM_P2
2023/09/29 00:00:21;;;;;;;0.10;0.10;;;;;;;15.76;73.99;97799.94;4994732;28;20042;-72
2023/09/29 00:02:53;;;;;;;0.10;0.10;;;;;;;15.67;74.43;97795.91;4993795;28;20070;-71
2023/09/29 00:05:21;;;;;;;0.17;0.17;;;;;;;15.72;74.15;97795.22;4996106;28;20073;-71
2023/09/29 00:07:51;;;;;;;0.20;0.20;;;;;;;15.64;75.13;97796.31;4994363;28;20042;-72
2023/09/29 00:10:21;;;;;;;0.20;0.20;;;;;;;15.54;74.78;97784.41;4986051;28;20046;-72
2023/09/29 00:12:50;;;;;;;0.20;0.20;;;;;;;15.66;74.25;97788.88;4987468;28;20096;-72
2023/09/29 00:15:18;;;;;;;0.20;0.20;;;;;;;15.52;75.13;97781.09;4994819;28;20034;-70
2023/09/29 00:17:46;;;;;;;0.22;0.20;;;;;;;15.52;75.90;97784.59;4990117;28;20052;-71
2023/09/29 00:20:19;;;;;;;0.22;0.22;;;;;;;15.55;76.00;97789.59;4985039;28;20077;-71
2023/09/29 00:22:47;;;;;;;0.20;0.20;;;;;;;15.68;74.84;97794.81;4993744;28;20063;-70
2023/09/29 00:25:15;;;;;;;0.20;0.20;;;;;;;15.76;74.41;97778.41;4990614;28;20129;-70
2023/09/29 00:27:44;;;;;;;0.22;0.22;;;;;;;15.74;74.64;97787.75;4984486;28;20046;-71
2023/09/29 00:30:13;;;;;;;0.20;0.20;;;;;;;15.66;74.66;97786.16;4986451;28;20051;-71
2023/09/29 00:32:46;;;;;;;0.20;0.20;;;;;;;15.46;75.91;97782.81;4992651;28;20038;-70
2023/09/29 00:35:21;;;;;;;0.10;0.10;;;;;;;15.56;75.35;97780.47;4997722;28;20053;-70
2023/09/29 00:37:49;;;;;;;0.28;0.28;;;;;;;15.52;75.92;97781.91;4977752;28;20408;-70
2023/09/29 00:40:17;;;;;;;0.20;0.20;;;;;;;15.47;75.81;97787.13;4987091;28;20121;-70
2023/09/29 00:42:46;;;;;;;0.20;0.20;;;;;;;15.38;76.50;97783.06;4991360;28;20042;-72
2023/09/29 00:45:19;;;;;;;0.13;0.13;;;;;;;15.47;75.83;97780.94;4988774;28;20096;-70
2023/09/29 00:47:49;;;;;;;0.20;0.20;;;;;;;15.40;76.21;97781.00;4984443;28;20133;-72
2023/09/29 00:50:19;;;;;;;0.20;0.20;;;;;;;15.33;76.44;97788.31;4991616;28;20050;-72
2023/09/29 00:52:48;;;;;;;0.20;0.20;;;;;;;15.34;77.28;97789.97;4983081;28;20132;-71
2023/09/29 00:55:17;;;;;;;0.13;0.13;;;;;;;15.29;77.74;97779.00;4985693;28;20042;-71
2023/09/29 00:57:47;;;;;;;0.10;0.10;;;;;;;15.43;77.14;97785.94;4988932;28;20081;-72
2023/09/29 01:00:21;;;;;;;0.20;0.20;;;;;;;15.40;77.21;97786.38;4985449;28;20050;-72
2023/09/29 01:02:49;;;;;;;0.15;0.15;;;;;;;15.36;77.58;97787.88;4991061;28;20038;-72
2023/09/29 01:05:17;;;;;;;0.20;0.20;;;;;;;15.42;77.20;97784.28;4989122;28;20038;-72
2023/09/29 01:07:46;;;;;;;0.20;0.20;;;;;;;15.39;77.50;97777.47;4990537;28;20532;-72
2023/09/29 01:10:14;;;;;;;0.15;0.15;;;;;;;15.38;77.55;97777.69;4991454;28;20038;-72
2023/09/29 01:12:43;;;;;;;0.17;0.17;;;;;;;15.43;77.12;97778.69;4984839;28;20150;-72
2023/09/29 01:15:13;;;;;;;0.20;0.20;;;;;;;15.46;77.33;97779.31;4991111;28;20039;-74
2023/09/29 01:17:41;;;;;;;0.20;0.17;;;;;;;15.45;77.10;97780.34;4985951;28;20108;-72
2023/09/29 01:20:15;;;;;;;0.20;0.20;;;;;;;15.41;77.36;97779.94;4989720;28;20050;-73
2023/09/29 01:22:47;;;;;;;0.22;0.22;;;;;;;15.46;77.01;97780.13;5003479;28;20054;-74
2023/09/29 01:25:17;;;;;;;0.20;0.20;;;;;;;15.39;77.50;97780.16;4996166;28;20081;-71
2023/09/29 01:27:45;;;;;;;0.10;0.10;;;;;;;15.33;77.83;97780.22;4993568;28;20563;-72
2023/09/29 01:30:14;;;;;;;0.20;0.20;;;;;;;15.37;77.77;97781.41;4994125;28;20042;-73
2023/09/29 01:32:42;;;;;;;0.20;0.20;;;;;;;15.34;77.94;97787.25;4995151;28;20053;-72
2023/09/29 01:35:11;;;;;;;0.25;0.25;;;;;;;15.37;77.60;97781.41;4997064;28;20491;-72
2023/09/29 01:37:40;;;;;;;0.10;0.10;;;;;;;15.35;77.68;97788.91;5002340;28;20081;-74
2023/09/29 01:40:08;;;;;;;0.20;0.20;;;;;;;15.33;77.65;97782.94;4987998;28;20089;-73
2023/09/29 01:42:37;;;;;;;0.10;0.10;;;;;;;15.38;77.67;97791.13;4993565;28;20101;-71
2023/09/29 01:45:08;;;;;;;0.10;0.10;;;;;;;15.51;76.87;97787.50;4995340;28;20069;-72
2023/09/29 01:47:36;;;;;;;0.10;0.10;;;;;;;15.38;76.87;97778.53;4993675;28;20049;-72
2023/09/29 01:50:05;;;;;;;0.20;0.20;;;;;;;15.45;76.77;97783.84;4993676;28;20038;-72
2023/09/29 01:52:33;;;;;;;0.20;0.20;;;;;;;15.39;76.80;97785.53;4995157;28;20711;-72
2023/09/29 01:55:08;;;;;;;0.20;0.20;;;;;;;15.38;76.15;97791.13;4994000;28;20042;-72
2023/09/29 01:57:38;;;;;;;0.20;0.20;;;;;;;15.23;77.31;97791.50;4992698;28;20135;-72
2023/09/29 02:00:15;;;;;;;0.15;0.15;;;;;;;15.32;76.64;97790.16;4997150;28;20129;-71
2023/09/29 02:02:44;;;;;;;0.10;0.10;;;;;;;15.18;77.32;97785.09;4990526;28;20456;-72
2023/09/29 02:05:12;;;;;;;0.13;0.13;;;;;;;15.19;77.17;97778.69;4998182;28;20113;-72
2023/09/29 02:07:40;;;;;;;0.20;0.20;;;;;;;15.16;77.43;97784.53;4993370;28;20042;-73
2023/09/29 02:10:09;;;;;;;0.10;0.10;;;;;;;15.09;77.47;97778.34;5013116;28;20057;-74
2023/09/29 02:12:46;;;;;;;0.20;0.20;;;;;;;15.17;77.30;97778.06;4991539;28;20051;-72
2023/09/29 02:15:15;;;;;;;0.10;0.10;;;;;;;15.19;77.41;97776.00;4987648;28;20465;-71
2023/09/29 02:17:44;;;;;;;0.20;0.20;;;;;;;15.15;77.84;97783.69;5004477;28;20046;-72
2023/09/29 02:20:15;;;;;;;0.20;0.20;;;;;;;15.19;77.82;97784.88;4978896;28;20054;-74
2023/09/29 02:22:43;;;;;;;0.10;0.10;;;;;;;15.13;78.09;97784.94;4984899;28;20665;-72
2023/09/29 02:25:12;;;;;;;0.10;0.10;;;;;;;15.15;78.02;97785.56;4998107;28;20043;-72
2023/09/29 02:27:41;;;;;;;0.10;0.10;;;;;;;15.15;77.90;97781.00;5001221;28;20148;-73
2023/09/29 02:30:11;;;;;;;0.10;0.10;;;;;;;15.14;78.00;97776.69;4994065;28;20057;-71
2023/09/29 02:32:41;;;;;;;0.10;0.10;;;;;;;15.10;78.11;97783.50;4988591;28;20464;-72
2023/09/29 02:35:10;;;;;;;0.10;0.10;;;;;;;15.11;78.27;97778.97;4994226;28;20042;-72
2023/09/29 02:37:39;;;;;;;0.20;0.20;;;;;;;15.12;77.91;97786.00;4986450;28;20042;-72
2023/09/29 02:40:14;;;;;;;0.20;0.20;;;;;;;15.05;78.12;97786.84;4992927;28;20129;-73
2023/09/29 02:42:44;;;;;;;0.10;0.10;;;;;;;15.05;78.13;97786.06;4989817;28;20081;-73
2023/09/29 02:45:13;;;;;;;0.10;0.10;;;;;;;15.02;77.98;97784.63;4994054;28;20061;-72
2023/09/29 02:47:41;;;;;;;0.10;0.10;;;;;;;15.05;77.18;97786.84;4989285;28;20058;-73
2023/09/29 02:50:11;;;;;;;0.17;0.17;;;;;;;14.92;77.57;97778.06;4994023;28;20052;-72
2023/09/29 02:52:40;;;;;;;0.13;0.10;;;;;;;14.97;77.15;97770.16;4987993;28;20047;-72
2023/09/29 02:55:12;;;;;;;0.20;0.20;;;;;;;14.97;77.44;97779.06;4989517;28;20038;-73
2023/09/29 02:57:42;;;;;;;0.20;0.20;;;;;;;14.96;77.83;97779.28;4991667;28;20074;-72
2023/09/29 03:00:15;;;;;;;0.05;0.05;;;;;;;14.86;78.41;97776.25;4989402;28;20453;-72
2023/09/29 03:02:43;;;;;;;0.20;0.20;;;;;;;14.83;78.60;97790.13;4977005;28;20054;-72
2023/09/29 03:05:14;;;;;;;0.20;0.20;;;;;;;14.83;78.94;97779.38;4991996;28;20097;-73
2023/09/29 03:07:42;;;;;;;0.10;0.10;;;;;;;14.95;78.39;97783.03;4990735;28;20042;-72
2023/09/29 03:10:13;;;;;;;0.20;0.20;;;;;;;14.95;77.87;97778.44;4993300;28;20411;-73
2023/09/29 03:12:40;;;;;;;0.20;0.20;;;;;;;14.90;77.26;97774.78;4992118;28;20038;-73
2023/09/29 03:15:09;;;;;;;0.10;0.10;;;;;;;14.89;76.55;97768.56;4992105;28;20044;-73
2023/09/29 03:17:38;;;;;;;0.13;0.13;;;;;;;14.84;76.72;97767.59;4988291;28;20058;-73
2023/09/29 03:20:10;;;;;;;0.20;0.20;;;;;;;14.67;76.98;97762.72;4993205;28;20042;-74
2023/09/29 03:22:38;;;;;;;0.10;0.10;;;;;;;14.72;76.87;97767.47;4992814;28;20050;-73
2023/09/29 03:25:06;;;;;;;0.10;0.10;;;;;;;14.83;76.69;97763.25;4988046;28;20034;-74
2023/09/29 03:27:34;;;;;;;0.10;0.10;;;;;;;14.68;77.13;97763.53;4989340;28;20121;-74
2023/09/29 03:30:03;;;;;;;0.10;0.10;;;;;;;14.69;77.62;97765.19;4991142;28;20496;-74
2023/09/29 03:32:31;;;;;;;0.10;0.10;;;;;;;14.71;77.66;97765.81;4984955;28;20117;-73
2023/09/29 03:35:00;;;;;;;0.20;0.20;;;;;;;14.68;77.74;97772.44;4988029;28;20035;-73
2023/09/29 03:37:28;;;;;;;0.20;0.20;;;;;;;14.71;78.04;97768.50;4989602;28;20050;-74
2023/09/29 03:39:56;;;;;;;0.20;0.20;;;;;;;14.68;78.20;97760.88;4984587;28;20497;-75
2023/09/29 03:42:24;;;;;;;0.10;0.10;;;;;;;14.72;78.05;97761.25;4990334;28;20061;-73
2023/09/29 03:44:51;;;;;;;0.20;0.20;;;;;;;14.73;77.91;97765.59;4991823;28;20503;-74
2023/09/29 03:47:20;;;;;;;0.10;0.10;;;;;;;14.74;77.63;97768.06;4980452;28;20049;-74
2023/09/29 03:49:48;;;;;;;0.10;0.10;;;;;;;14.71;77.67;97763.13;4976147;28;20062;-73
2023/09/29 03:52:17;;;;;;;0.17;0.17;;;;;;;14.60;78.29;97758.44;4984273;28;20049;-72
2023/09/29 03:54:45;;;;;;;0.20;0.20;;;;;;;14.64;77.93;97770.38;4989616;28;20065;-75
2023/09/29 03:57:12;;;;;;;0.10;0.10;;;;;;;14.76;77.50;97775.91;4985625;28;20039;-74
2023/09/29 03:59:40;;;;;;;0.17;0.17;;;;;;;14.67;77.63;97768.09;4992079;28;20057;-72
2023/09/29 04:02:08;;;;;;;0.10;0.10;;;;;;;14.67;77.81;97772.66;4991114;28;20121;-73
2023/09/29 04:04:36;;;;;;;0.20;0.20;;;;;;;14.65;77.73;97778.22;4991405;28;20056;-73
2023/09/29 04:07:04;;;;;;;0.20;0.20;;;;;;;14.63;77.69;97774.13;4996499;28;20246;-72
2023/09/29 04:09:34;;;;;;;0.20;0.20;;;;;;;14.56;78.02;97781.38;4978994;28;20046;-73
2023/09/29 04:12:01;;;;;;;0.10;0.10;;;;;;;14.56;78.25;97784.06;4987063;28;20034;-73
2023/09/29 04:14:30;;;;;;;0.13;0.13;;;;;;;14.54;78.18;97780.78;4985076;28;20050;-74
2023/09/29 04:17:01;;;;;;;0.13;0.13;;;;;;;14.55;78.19;97777.88;4989791;28;20057;-74
2023/09/29 04:19:29;;;;;;;0.10;0.10;;;;;;;14.59;78.21;97783.66;4984221;28;20054;-74
2023/09/29 04:21:57;;;;;;;0.20;0.20;;;;;;;14.60;77.93;97769.19;4980243;28;20118;-73
2023/09/29 04:24:26;;;;;;;0.15;0.15;;;;;;;14.53;78.25;97768.41;4982336;28;20039;-74
2023/09/29 04:26:56;;;;;;;0.20;0.20;;;;;;;14.56;77.99;97774.16;4988348;28;20061;-74
2023/09/29 04:29:23;;;;;;;0.10;0.10;;;;;;;14.51;78.28;97775.84;4979937;28;20517;-74
2023/09/29 04:31:51;;;;;;;0.13;0.13;;;;;;;14.41;78.69;97781.69;4986130;28;20547;-75
2023/09/29 04:34:19;;;;;;;0.17;0.17;;;;;;;14.46;78.53;97787.22;4982580;28;20077;-73
2023/09/29 04:36:46;;;;;;;0.10;0.10;;;;;;;14.45;78.67;97782.06;4986866;28;20039;-74
2023/09/29 04:39:15;;;;;;;0.20;0.20;;;;;;;14.39;78.58;97786.44;4984616;28;21894;-74
2023/09/29 04:41:43;;;;;;;0.17;0.17;;;;;;;14.39;78.83;97781.06;4992298;28;20065;-73
2023/09/29 04:44:12;;;;;;;0.10;0.10;;;;;;;14.31;79.38;97787.50;4987130;28;20098;-74
2023/09/29 04:46:41;;;;;;;0.20;0.20;;;;;;;14.34;79.37;97789.72;4987699;28;20500;-75
2023/09/29 04:49:09;;;;;;;0.10;0.10;;;;;;;14.38;78.94;97789.31;4987436;28;20038;-73
2023/09/29 04:51:37;;;;;;;0.10;0.10;;;;;;;14.41;79.01;97786.25;4983008;28;20043;-73
2023/09/29 04:54:06;;;;;;;0.08;0.08;;;;;;;14.42;78.89;97785.19;4986358;28;20044;-74
2023/09/29 04:56:34;;;;;;;0.10;0.10;;;;;;;14.41;79.10;97783.56;4991063;28;20546;-74
2023/09/29 04:59:02;;;;;;;0.20;0.20;;;;;;;14.30;79.52;97790.38;4990264;28;20046;-73
2023/09/29 05:01:31;;;;;;;0.10;0.10;;;;;;;14.36;79.57;97786.00;4990426;28;20663;-74
2023/09/29 05:03:59;;;;;;;0.10;0.10;;;;;;;14.34;79.40;97792.41;4992694;28;20153;-74
2023/09/29 05:06:28;;;;;;;0.15;0.15;;;;;;;14.31;79.30;97786.66;4982299;28;20042;-74
2023/09/29 05:08:56;;;;;;;0.10;0.10;;;;;;;14.34;79.35;97786.22;4982840;28;20452;-73
2023/09/29 05:11:25;;;;;;;0.20;0.20;;;;;;;14.36;78.95;97784.16;4985028;28;20059;-76
2023/09/29 05:13:55;;;;;;;0.20;0.20;;;;;;;14.44;79.18;97788.47;4987841;28;20070;-74
2023/09/29 05:16:24;;;;;;;0.13;0.13;;;;;;;14.49;78.90;97784.13;4987575;28;20469;-73
2023/09/29 05:18:54;;;;;;;0.10;0.10;;;;;;;14.55;78.60;97790.47;4985640;28;20051;-73
2023/09/29 05:21:26;;;;;;;0.20;0.17;;;;;;;14.61;78.60;97789.63;4992612;28;20120;-74
2023/09/29 05:23:54;;;;;;;0.10;0.10;;;;;;;14.75;77.96;97790.38;4992999;28;20082;-73
2023/09/29 05:26:22;;;;;;;0.20;0.20;;;;;;;14.73;77.97;97793.28;4995995;28;20047;-74
2023/09/29 05:28:53;;;;;;;0.10;0.10;;;;;;;14.73;77.89;97797.84;4990204;28;20129;-74
2023/09/29 05:31:21;;;;;;;0.10;0.10;;;;;;;14.71;77.73;97805.28;4990995;28;20448;-74
2023/09/29 05:33:53;;;;;;;0.10;0.10;;;;;;;14.68;78.17;97801.16;4982235;28;20039;-75
2023/09/29 05:36:23;;;;;;;0.20;0.20;;;;;;;14.60;78.40;97802.25;4981339;28;20042;-74
2023/09/29 05:38:51;;;;;;;0.15;0.15;;;;;;;14.55;78.67;97806.59;4984032;28;20511;-74
2023/09/29 05:41:18;;;;;;;0.20;0.20;;;;;;;14.56;78.88;97802.88;4984548;28;20039;-74
2023/09/29 05:43:47;;;;;;;0.30;0.30;;;;;;;14.53;79.08;97808.69;4987019;28;20480;-73
2023/09/29 05:46:14;;;;;;;0.20;0.20;;;;;;;14.53;79.02;97816.75;4988071;28;20412;-74
2023/09/29 05:48:42;;;;;;;0.20;0.20;;;;;;;14.55;78.98;97801.22;4980328;28;20058;-73
2023/09/29 05:51:11;;;;;;;0.20;0.20;;;;;;;14.58;79.06;97814.25;4980241;28;20043;-74
2023/09/29 05:53:40;;;;;;;0.10;0.10;;;;;;;14.63;78.71;97801.00;4981620;28;20046;-73
2023/09/29 05:56:09;;;;;;;0.20;0.20;;;;;;;14.65;78.69;97805.09;4989771;28;20077;-73
2023/09/29 05:58:37;;;;;;;0.13;0.13;;;;;;;14.72;78.51;97802.41;4981137;28;20050;-74
2023/09/29 06:01:09;;;;;;;0.10;0.10;;;;;;;14.77;78.26;97797.19;4980607;28;20043;-74
2023/09/29 06:03:37;;;;;;;;;;;;;;;14.85;78.37;97798.78;4979095;28;20488;-73
2023/09/29 06:06:06;;;;;;;0.30;0.30;;;;;;;14.98;77.84;97799.53;4974406;28;19933;-74
2023/09/29 06:08:33;;;;;;;0.20;0.20;;;;;;;15.06;77.40;97796.56;4987407;28;20039;-74
2023/09/29 06:11:22;;;;;;;0.13;0.13;;;;;;;15.13;77.30;97801.09;4992621;28;20050;-74
2023/09/29 06:13:50;;;;;;;0.20;0.20;;;;;;;15.25;76.67;97805.53;4985824;28;20038;-74
2023/09/29 06:16:17;;;;;;;0.20;0.20;;;;;;;15.27;76.61;97811.50;4992584;28;20034;-73
2023/09/29 06:18:46;;;;;;;0.10;0.10;;;;;;;15.31;76.54;97814.59;4987613;28;20065;-74
2023/09/29 06:21:15;;;;;;;0.10;0.10;;;;;;;15.33;76.58;97809.81;4993186;28;20495;-73
2023/09/29 06:23:43;;;;;;;0.10;0.10;;;;;;;15.38;76.51;97808.09;4993268;28;20077;-74
2023/09/29 06:26:11;;;;;;;0.10;0.10;;;;;;;15.53;76.11;97810.47;4991086;28;20038;-73
2023/09/29 06:28:40;;;;;;;0.10;0.10;;;;;;;15.60;75.92;97819.34;4983514;28;20046;-73
2023/09/29 06:31:08;;;;;;;0.10;0.10;;;;;;;15.69;75.75;97818.00;4986491;28;20043;-73
2023/09/29 06:33:36;;;;;;;0.10;0.10;;;;;;;15.77;75.50;97819.59;4979571;28;20051;-74
2023/09/29 06:36:04;;;;;;;0.15;0.15;;;;;;;15.85;75.31;97821.19;4995109;28;20113;-73
2023/09/29 06:38:32;;;;;;;0.20;0.20;;;;;;;15.92;75.11;97817.38;4986939;28;20045;-73
2023/09/29 06:41:00;;;;;;;0.10;0.10;;;;;;;16.02;75.30;97825.75;4985406;28;20050;-73
2023/09/29 06:43:28;;;;;;;0.10;0.10;;;;;;;16.11;74.81;97821.72;4993734;28;20419;-73
2023/09/29 06:45:58;;;;;;;0.10;0.10;;;;;;;16.22;74.73;97822.84;4982334;28;20038;-74
2023/09/29 06:48:29;;;;;;;0.10;0.10;;;;;;;16.32;73.99;97836.59;4984115;28;20078;-74
2023/09/29 06:50:59;;;;;;;0.10;0.10;;;;;;;16.42;73.79;97833.38;4981633;28;20097;-74
2023/09/29 06:53:29;;;;;;;0.13;0.13;;;;;;;16.49;73.40;97826.06;4992177;28;20659;-74
2023/09/29 06:55:59;;;;;;;0.20;0.20;;;;;;;16.58;72.88;97827.38;4986347;28;20515;-74
2023/09/29 06:58:26;;;;;;;0.10;0.10;;;;;;;16.68;72.31;97829.56;4994577;28;20046;-73
2023/09/29 07:00:56;;;;;;;0.20;0.20;;;;;;;16.75;72.04;97827.59;4979201;28;20043;-73
2023/09/29 07:03:31;;;;;;;0.10;0.10;;;;;;;16.81;71.68;97832.91;4980690;28;20042;-74
2023/09/29 07:06:00;;;;;;;0.10;0.10;;;;;;;16.90;71.06;97837.97;4987260;28;20050;-74
2023/09/29 07:08:28;;;;;;;0.10;0.10;;;;;;;16.96;71.15;97831.66;4988341;28;20038;-74
2023/09/29 07:10:56;;;;;;;0.13;0.13;;;;;;;17.00;70.52;97828.28;4989083;28;20074;-74
2023/09/29 07:13:24;;;;;;;0.10;0.10;;;;;;;17.07;70.14;97826.31;4982557;28;21981;-74
2023/09/29 07:15:51;;;;;;;0.10;0.10;;;;;;;17.14;69.91;97820.81;4995136;28;20046;-74
2023/09/29 07:18:21;;;;;;;0.10;0.10;;;;;;;17.22;69.74;97826.72;4988110;28;20161;-73
2023/09/29 07:20:53;;;;;;;0.10;0.10;;;;;;;17.31;69.34;97837.16;4984898;28;20042;-75
2023/09/29 07:23:21;;;;;;;0.05;0.05;;;;;;;17.34;69.11;97829.41;4982401;28;20050;-73
2023/09/29 07:25:51;;;;;;;0.10;0.10;;;;;;;17.40;69.20;97831.19;4991673;28;20053;-73
2023/09/29 07:28:19;;;;;;;0.15;0.15;;;;;;;17.47;69.11;97831.09;4990627;28;20042;-73
2023/09/29 07:30:47;;;;;;;0.15;0.15;;;;;;;17.56;69.05;97844.00;4989406;28;20137;-74
2023/09/29 07:33:15;;;;;;;0.10;0.10;;;;;;;17.66;68.53;97837.22;4982476;28;20049;-74
2023/09/29 07:35:43;;;;;;;0.10;0.10;;;;;;;17.76;68.40;97846.41;4988170;28;20092;-73
2023/09/29 07:38:13;;;;;;;0.10;0.10;;;;;;;17.83;67.69;97836.31;4993432;28;20034;-73
2023/09/29 07:40:40;;;;;;;0.20;0.20;;;;;;;17.92;67.53;97843.00;4988534;28;20051;-73
2023/09/29 07:43:08;;;;;;;0.13;0.13;;;;;;;17.98;67.43;97839.34;4989123;28;20117;-73
2023/09/29 07:45:36;;;;;;;0.10;0.10;;;;;;;18.09;66.96;97840.41;4989693;28;20090;-74
2023/09/29 07:48:04;;;;;;;0.10;0.10;;;;;;;18.19;67.17;97843.34;4982291;28;20050;-74
2023/09/29 07:50:32;;;;;;;0.10;0.10;;;;;;;18.29;66.27;97840.84;4984725;28;20042;-74
2023/09/29 07:53:00;;;;;;;0.10;0.10;;;;;;;18.38;66.15;97832.38;4985867;28;20129;-73
2023/09/29 07:55:29;;;;;;;0.10;0.10;;;;;;;18.46;66.07;97837.41;4986391;28;20472;-73
2023/09/29 07:57:57;;;;;;;0.20;0.20;;;;;;;18.51;66.21;97838.34;4993326;28;20049;-75
2023/09/29 08:00:25;;;;;;;0.10;0.10;;;;;;;18.61;65.87;97843.97;4992328;28;20046;-74
2023/09/29 08:02:53;;;;;;;0.10;0.10;;;;;;;18.66;65.87;97844.09;4980607;28;20129;-74
2023/09/29 08:05:21;;;;;;;0.20;0.20;;;;;;;18.71;65.81;97840.66;4979799;28;20038;-73
2023/09/29 08:07:49;;;;;;;0.10;0.10;;;;;;;18.78;65.87;97843.25;4978831;28;20134;-75
2023/09/29 08:10:16;;;;;;;0.13;0.13;;;;;;;18.90;65.89;97846.69;4990387;28;20499;-75
2023/09/29 08:12:46;;;;;;;0.10;0.10;;;;;;;18.97;65.51;97839.28;4984142;28;20063;-74
2023/09/29 08:15:14;;;;;;;0.00;0.00;;;;;;;19.03;65.54;97843.72;4984623;28;20113;-72
2023/09/29 08:17:43;;;;;;;0.00;0.00;;;;;;;19.11;65.04;97837.91;4983466;28;20049;-72
2023/09/29 08:20:14;;;;;;;0.10;0.10;;;;;;;19.12;64.80;97836.00;4991094;28;20081;-72
2023/09/29 08:22:42;;;;;;;0.10;0.10;;;;;;;19.10;64.82;97836.28;4993632;28;20427;-72
2023/09/29 08:25:11;;;;;;;0.10;0.10;;;;;;;19.10;64.27;97835.47;4989803;28;20117;-75
2023/09/29 08:27:39;;;;;;;0.20;0.20;;;;;;;19.12;64.50;97833.31;4987919;28;20049;-72
2023/09/29 08:30:10;;;;;;;0.20;0.20;;;;;;;19.15;64.43;97836.34;4997160;28;20046;-71
2023/09/29 08:32:39;;;;;;;0.10;0.10;;;;;;;19.19;64.37;97842.94;4982255;28;20044;-72
2023/09/29 08:35:12;;;;;;;0.10;0.10;;;;;;;19.24;64.17;97823.25;4985904;28;20050;-73
2023/09/29 08:37:43;;;;;;;0.08;0.08;;;;;;;19.35;64.20;97816.94;4983871;28;20039;-71
2023/09/29 08:40:13;;;;;;;0.20;0.20;;;;;;;19.46;64.01;97824.16;4988109;28;20050;-71
2023/09/29 08:42:46;;;;;;;0.10;0.10;;;;;;;19.52;63.39;97819.72;4991022;28;20077;-71
2023/09/29 08:45:16;;;;;;;0.10;0.10;;;;;;;19.59;62.88;97823.06;4990828;28;20085;-71
2023/09/29 08:47:48;;;;;;;0.10;0.10;;;;;;;19.64;63.08;97823.13;4989710;28;20050;-71
2023/09/29 08:50:17;;;;;;;0.10;0.10;;;;;;;19.72;62.93;97814.59;4991651;28;20551;-71
2023/09/29 08:52:45;;;;;;;0.10;0.10;;;;;;;19.82;62.75;97811.22;4986378;28;20047;-71
2023/09/29 08:55:13;;;;;;;0.20;0.20;;;;;;;19.92;62.57;97812.19;4987022;28;20152;-71
2023/09/29 08:57:42;;;;;;;0.10;0.10;;;;;;;20.05;62.46;97811.00;4987920;28;20042;-71
2023/09/29 09:00:12;;;;;;;0.10;0.10;;;;;;;20.22;62.09;97798.25;4992474;28;20109;-71
2023/09/29 09:02:42;;;;;;;0.10;0.10;;;;;;;20.39;61.44;97795.50;4986037;28;20046;-71
2023/09/29 09:05:11;;;;;;;0.15;0.15;;;;;;;20.55;60.77;97793.81;4983675;28;20089;-72
2023/09/29 09:07:39;;;;;;;0.17;0.17;;;;;;;20.68;60.09;97794.22;4976896;28;20043;-71
2023/09/29 09:10:09;;;;;;;0.03;0.03;;;;;;;20.84;59.50;97793.31;4982500;28;20437;-71
2023/09/29 09:12:50;;;;;;;0.10;0.10;;;;;;;20.97;59.43;97785.84;4975497;28;20051;-71
2023/09/29 09:15:24;;;;;;;0.08;0.08;;;;;;;21.05;58.59;97794.34;4999589;28;20050;-72
2023/09/29 09:17:54;;;;;;;0.10;0.10;;;;;;;21.13;57.99;97798.47;4989554;28;20045;-71
2023/09/29 09:20:23;;;;;;;0.00;0.00;;;;;;;21.19;58.02;97783.91;4975804;28;20050;-71
2023/09/29 09:22:58;;;;;;;0.10;0.10;;;;;;;21.29;58.03;97784.00;4982579;28;20062;-72
2023/09/29 09:25:35;;;;;;;0.10;0.10;;;;;;;21.36;57.68;97778.34;4990302;28;20038;-71
2023/09/29 09:28:03;;;;;;;0.10;0.10;;;;;;;21.42;58.03;97780.84;4980914;28;20463;-71
2023/09/29 09:30:35;;;;;;;0.10;0.10;;;;;;;21.48;57.54;97779.81;4984456;28;20042;-72
2023/09/29 09:33:06;;;;;;;0.00;0.00;;;;;;;21.54;57.61;97773.34;4974658;28;20090;-73
2023/09/29 09:35:37;;;;;;;0.08;0.08;;;;;;;21.62;57.04;97777.47;4982189;28;20043;-72
2023/09/29 09:38:05;;;;;;;0.10;0.10;;;;;;;21.65;57.71;97789.72;4987070;28;20034;-72
2023/09/29 09:40:34;;;;;;;0.10;0.10;;;;;;;21.69;57.36;97788.94;4978081;28;20046;-72
2023/09/29 09:43:05;;;;;;;0.00;0.00;;;;;;;21.73;57.09;97791.94;4979758;28;20451;-72
2023/09/29 09:45:37;;;;;;;0.10;0.10;;;;;;;21.76;56.73;97786.81;4990328;28;20104;-72
2023/09/29 09:48:08;;;;;;;0.00;0.00;;;;;;;21.77;56.15;97780.31;4994250;28;20039;-72
2023/09/29 09:50:41;;;;;;;0.20;0.20;;;;;;;21.80;56.13;97777.03;4989482;28;20149;-71
2023/09/29 09:53:13;;;;;;;0.10;0.10;;;;;;;21.82;56.12;97771.34;4985499;28;20042;-71
2023/09/29 09:55:44;;;;;;;0.05;0.05;;;;;;;21.87;56.03;97768.66;4987572;28;20047;-72
2023/09/29 09:58:13;;;;;;;0.13;0.13;;;;;;;21.90;55.31;97768.16;4991149;28;20555;-72
2023/09/29 10:00:44;;;;;;;0.00;0.00;;;;;;;21.95;55.11;97770.88;4992811;28;20039;-72
2023/09/29 10:03:16;;;;;;;0.10;0.10;;;;;;;21.98;54.55;97764.97;4987125;28;20118;-71
2023/09/29 10:05:51;;;;;;;0.10;0.10;;;;;;;22.06;53.59;97766.34;4994657;28;20047;-72
2023/09/29 10:08:29;;;;;;;0.10;0.10;;;;;;;22.11;53.90;97774.56;4993933;28;20046;-75
2023/09/29 10:11:12;;;;;;;0.00;0.00;;;;;;;22.13;53.61;97781.34;4984339;28;20055;-72
2023/09/29 10:13:44;;;;;;;0.10;0.10;;;;;;;22.15;53.13;97786.53;4986320;28;20030;-72
2023/09/29 10:16:22;;;;;;;0.05;0.05;;;;;;;22.19;53.43;97796.63;4993671;28;20038;-71
2023/09/29 10:18:58;;;;;;;0.00;0.00;;;;;;;22.20;52.60;97792.81;4995057;28;20054;-72
2023/09/29 10:21:30;;;;;;;0.10;0.10;;;;;;;22.22;53.57;97793.34;4986632;28;20508;-72
2023/09/29 10:24:00;;;;;;;0.10;0.10;;;;;;;22.21;53.10;97780.88;4988444;28;20094;-72
2023/09/29 10:26:28;;;;;;;0.08;0.08;;;;;;;22.22;53.36;97784.38;4991110;28;20055;-72
2023/09/29 10:29:02;;;;;;;0.10;0.10;;;;;;;22.22;53.47;97778.94;4994371;28;20049;-71
2023/09/29 10:31:30;;;;;;;0.10;0.10;;;;;;;22.23;54.01;97784.13;4990128;28;20078;-73
2023/09/29 10:33:59;;;;;;;0.00;0.00;;;;;;;22.27;53.90;97774.34;4986548;28;20050;-75
2023/09/29 10:36:29;;;;;;;0.10;0.10;;;;;;;22.30;53.95;97771.13;4993297;28;20117;-71
2023/09/29 10:38:58;;;;;;;0.00;0.00;;;;;;;22.35;53.99;97773.03;4982418;28;20125;-71
2023/09/29 10:41:29;;;;;;;0.10;0.10;;;;;;;22.45;52.72;97770.34;4989621;28;20046;-71
2023/09/29 10:44:04;;;;;;;0.10;0.10;;;;;;;22.55;52.11;97773.09;4980739;28;20138;-71
2023/09/29 10:46:32;;;;;;;0.00;0.00;;;;;;;22.61;52.14;97763.88;4984750;28;20125;-74
2023/09/29 10:49:01;;;;;;;0.10;0.10;;;;;;;22.65;51.81;97784.00;4984137;28;20507;-71
2023/09/29 10:51:31;;;;;;;0.10;0.10;;;;;;;22.70;51.55;97780.50;4988864;28;20058;-71
2023/09/29 10:54:02;;;;;;;0.03;0.03;;;;;;;22.75;52.02;97783.25;4988361;28;20034;-71
2023/09/29 10:56:30;;;;;;;0.10;0.10;;;;;;;22.80;51.54;97780.56;4984743;28;20046;-71
2023/09/29 10:58:59;;;;;;;0.10;0.10;;;;;;;22.83;51.51;97777.31;4990898;28;20061;-72
2023/09/29 11:01:32;;;;;;;0.13;0.13;;;;;;;22.80;50.65;97777.84;4988130;28;20121;-71
2023/09/29 11:04:02;;;;;;;0.10;0.10;;;;;;;22.77;51.53;97772.09;4988009;28;20042;-71
2023/09/29 11:06:31;;;;;;;0.10;0.10;;;;;;;22.68;51.15;97771.78;4990128;28;20042;-72
2023/09/29 11:08:59;;;;;;;0.10;0.10;;;;;;;22.62;51.23;97762.78;4992909;28;20034;-72
2023/09/29 11:11:33;;;;;;;0.10;0.10;;;;;;;22.56;52.01;97758.41;4996905;28;20050;-71
2023/09/29 11:14:04;;;;;;;0.10;0.10;;;;;;;22.52;52.24;97764.66;4993440;28;20769;-71
2023/09/29 11:16:32;;;;;;;0.10;0.10;;;;;;;22.50;52.60;97762.22;4983921;28;20069;-71
2023/09/29 11:19:10;;;;;;;0.00;0.00;;;;;;;22.45;52.25;97758.63;4985391;28;20054;-71
2023/09/29 11:21:39;;;;;;;0.10;0.10;;;;;;;22.39;52.43;97749.66;4990193;28;20070;-71
2023/09/29 11:24:09;;;;;;;0.10;0.10;;;;;;;22.38;52.81;97748.00;4994128;28;20073;-72
2023/09/29 11:26:40;;;;;;;0.10;0.10;;;;;;;22.38;53.10;97748.00;4993590;28;20503;-72
2023/09/29 11:29:09;;;;;;;0.08;0.08;;;;;;;22.36;52.75;97750.19;4984623;28;20398;-71
2023/09/29 11:31:38;;;;;;;0.10;0.10;;;;;;;22.32;52.67;97744.44;4985461;28;20048;-71
2023/09/29 11:34:08;;;;;;;0.00;0.00;;;;;;;22.34;53.27;97750.44;4986975;28;20046;-71
2023/09/29 11:36:36;;;;;;;0.05;0.05;;;;;;;22.34;52.83;97745.00;4986080;28;20121;-72
2023/09/29 11:39:07;;;;;;;0.10;0.10;;;;;;;22.36;52.97;97743.91;4990168;28;20500;-72
2023/09/29 11:41:35;;;;;;;0.13;0.13;;;;;;;22.33;52.99;97737.09;4982473;28;20043;-71
2023/09/29 11:44:04;;;;;;;0.10;0.10;;;;;;;22.33;53.51;97735.19;4990001;28;20042;-72